sensor_id;sensor_type;location;lat;lon;timestamp;temperature;humidity
10143;DHT22;5112;54.088;13.446;2023-11-19T00:05:35;4.60;99.90
10143;DHT22;5112;54.088;13.446;2023-11-19T00:15:38;4.50;99.90
10143;DHT22;5112;54.088;13.446;2023-11-19T00:25:39;4.50;99.90
10143;DHT22;5112;54.088;13.446;2023-11-19T00:35:42;4.50;99.90
10143;DHT22;5112;54.088;13.446;2023-11-19T00:45:44;4.70;99.90
10143;DHT22;5112;54.088;13.446;2023-11-19T00:55:47;4.60;99.90
10143;DHT22;5112;54.088;13.446;2023-11-19T01:05:49;4.70;99.90
10143;DHT22;5112;54.088;13.446;2023-11-19T01:15:54;4.60;99.90
10143;DHT22;5112;54.088;13.446;2023-11-19T01:25:56;4.60;99.90
10143;DHT22;5112;54.088;13.446;2023-11-19T01:36:00;4.50;99.90
10143;DHT22;5112;54.088;13.446;2023-11-19T01:46:02;4.50;99.90
10143;DHT22;5112;54.088;13.446;2023-11-19T01:56:08;4.60;99.90
10143;DHT22;5112;54.088;13.446;2023-11-19T02:06:11;4.50;99.90
10143;DHT22;5112;54.088;13.446;2023-11-19T02:16:14;4.50;99.90
10143;DHT22;5112;54.088;13.446;2023-11-19T02:26:19;4.50;99.90
10143;DHT22;5112;54.088;13.446;2023-11-19T02:36:24;4.50;99.90
10143;DHT22;5112;54.088;13.446;2023-11-19T02:46:26;4.60;99.90
10143;DHT22;5112;54.088;13.446;2023-11-19T02:56:29;4.60;99.90
10143;DHT22;5112;54.088;13.446;2023-11-19T03:06:35;4.60;99.90
10143;DHT22;5112;54.088;13.446;2023-11-19T03:16:38;4.50;99.90
10143;DHT22;5112;54.088;13.446;2023-11-19T03:26:39;4.50;99.90
10143;DHT22;5112;54.088;13.446;2023-11-19T03:36:42;4.40;99.90
10143;DHT22;5112;54.088;13.446;2023-11-19T03:46:44;4.40;99.90
10143;DHT22;5112;54.088;13.446;2023-11-19T03:56:47;4.30;99.90
10143;DHT22;5112;54.088;13.446;2023-11-19T04:06:49;4.20;99.90
10143;DHT22;5112;54.088;13.446;2023-11-19T04:16:52;4.10;99.90
10143;DHT22;5112;54.088;13.446;2023-11-19T04:26:54;4.10;99.90
10143;DHT22;5112;54.088;13.446;2023-11-19T04:36:58;4.20;99.90
10143;DHT22;5112;54.088;13.446;2023-11-19T04:47:02;4.30;99.90
10143;DHT22;5112;54.088;13.446;2023-11-19T04:57:05;4.20;99.90
10143;DHT22;5112;54.088;13.446;2023-11-19T05:07:07;4.20;99.90
10143;DHT22;5112;54.088;13.446;2023-11-19T05:17:10;4.10;99.90
10143;DHT22;5112;54.088;13.446;2023-11-19T05:27:11;4.20;99.90
10143;DHT22;5112;54.088;13.446;2023-11-19T05:37:15;4.30;99.90
10143;DHT22;5112;54.088;13.446;2023-11-19T05:47:17;4.20;99.90
10143;DHT22;5112;54.088;13.446;2023-11-19T05:57:20;4.20;99.90
10143;DHT22;5112;54.088;13.446;2023-11-19T06:07:24;4.10;99.90
10143;DHT22;5112;54.088;13.446;2023-11-19T06:17:27;4.20;99.90
10143;DHT22;5112;54.088;13.446;2023-11-19T06:27:29;4.00;99.90
10143;DHT22;5112;54.088;13.446;2023-11-19T06:37:32;3.90;99.90
10143;DHT22;5112;54.088;13.446;2023-11-19T06:47:34;4.00;99.90
10143;DHT22;5112;54.088;13.446;2023-11-19T06:57:37;3.90;99.90
10143;DHT22;5112;54.088;13.446;2023-11-19T07:07:38;4.00;99.90
10143;DHT22;5112;54.088;13.446;2023-11-19T07:17:42;4.00;99.90
10143;DHT22;5112;54.088;13.446;2023-11-19T07:27:44;3.90;99.90
10143;DHT22;5112;54.088;13.446;2023-11-19T07:37:49;3.90;99.90
10143;DHT22;5112;54.088;13.446;2023-11-19T07:47:50;3.90;99.90
10143;DHT22;5112;54.088;13.446;2023-11-19T07:57:55;3.90;99.90
10143;DHT22;5112;54.088;13.446;2023-11-19T08:07:56;3.90;99.90
10143;DHT22;5112;54.088;13.446;2023-11-19T08:18:00;3.90;99.90
10143;DHT22;5112;54.088;13.446;2023-11-19T08:28:02;4.10;99.90
10143;DHT22;5112;54.088;13.446;2023-11-19T08:38:05;4.10;99.90
10143;DHT22;5112;54.088;13.446;2023-11-19T08:48:07;4.10;99.90
10143;DHT22;5112;54.088;13.446;2023-11-19T08:58:10;4.20;99.90
10143;DHT22;5112;54.088;13.446;2023-11-19T09:08:12;4.30;99.90
10143;DHT22;5112;54.088;13.446;2023-11-19T09:18:15;4.30;99.90
10143;DHT22;5112;54.088;13.446;2023-11-19T09:28:16;4.30;99.90
10143;DHT22;5112;54.088;13.446;2023-11-19T09:38:19;4.40;99.90
10143;DHT22;5112;54.088;13.446;2023-11-19T09:48:21;4.50;99.90
10143;DHT22;5112;54.088;13.446;2023-11-19T09:58:26;4.50;99.90
10143;DHT22;5112;54.088;13.446;2023-11-19T10:08:29;4.60;99.90
10143;DHT22;5112;54.088;13.446;2023-11-19T10:18:32;4.50;99.90
10143;DHT22;5112;54.088;13.446;2023-11-19T10:28:39;4.60;99.90
10143;DHT22;5112;54.088;13.446;2023-11-19T10:38:52;4.60;99.90
10143;DHT22;5112;54.088;13.446;2023-11-19T10:48:53;4.70;99.90
10143;DHT22;5112;54.088;13.446;2023-11-19T10:58:59;4.80;99.90
10143;DHT22;5112;54.088;13.446;2023-11-19T11:09:01;5.00;99.90
10143;DHT22;5112;54.088;13.446;2023-11-19T11:19:04;5.00;99.90
10143;DHT22;5112;54.088;13.446;2023-11-19T11:29:13;5.20;99.90
10143;DHT22;5112;54.088;13.446;2023-11-19T11:39:20;5.30;99.90
10143;DHT22;5112;54.088;13.446;2023-11-19T11:49:27;5.40;99.90
10143;DHT22;5112;54.088;13.446;2023-11-19T11:59:43;5.50;99.90
10143;DHT22;5112;54.088;13.446;2023-11-19T12:09:48;5.60;99.90
10143;DHT22;5112;54.088;13.446;2023-11-19T12:19:51;5.80;99.90
10143;DHT22;5112;54.088;13.446;2023-11-19T12:29:53;5.90;99.90
10143;DHT22;5112;54.088;13.446;2023-11-19T12:39:58;6.00;99.90
10143;DHT22;5112;54.088;13.446;2023-11-19T12:50:00;6.30;99.90
10143;DHT22;5112;54.088;13.446;2023-11-19T13:00:04;6.50;99.90
10143;DHT22;5112;54.088;13.446;2023-11-19T13:10:09;6.70;99.90
10143;DHT22;5112;54.088;13.446;2023-11-19T13:20:13;7.00;99.90
10143;DHT22;5112;54.088;13.446;2023-11-19T13:30:18;7.30;99.90
10143;DHT22;5112;54.088;13.446;2023-11-19T13:40:21;7.60;99.90
10143;DHT22;5112;54.088;13.446;2023-11-19T13:50:25;8.10;99.90
10143;DHT22;5112;54.088;13.446;2023-11-19T14:00:28;8.50;99.90
10143;DHT22;5112;54.088;13.446;2023-11-19T14:10:29;9.10;99.90
10143;DHT22;5112;54.088;13.446;2023-11-19T14:20:32;9.60;99.90
10143;DHT22;5112;54.088;13.446;2023-11-19T14:30:36;9.80;99.90
10143;DHT22;5112;54.088;13.446;2023-11-19T14:40:40;10.00;99.90
10143;DHT22;5112;54.088;13.446;2023-11-19T14:50:43;10.20;99.90
10143;DHT22;5112;54.088;13.446;2023-11-19T15:00:46;10.40;99.90
10143;DHT22;5112;54.088;13.446;2023-11-19T15:10:48;10.50;99.90
10143;DHT22;5112;54.088;13.446;2023-11-19T15:20:51;10.50;99.90
10143;DHT22;5112;54.088;13.446;2023-11-19T15:30:53;10.50;99.90
10143;DHT22;5112;54.088;13.446;2023-11-19T15:40:56;10.50;99.90
10143;DHT22;5112;54.088;13.446;2023-11-19T15:50:58;10.50;99.90
10143;DHT22;5112;54.088;13.446;2023-11-19T16:01:01;10.50;99.90
10143;DHT22;5112;54.088;13.446;2023-11-19T16:11:03;10.40;99.90
10143;DHT22;5112;54.088;13.446;2023-11-19T16:21:07;10.30;99.90
10143;DHT22;5112;54.088;13.446;2023-11-19T16:31:09;10.40;99.90
10143;DHT22;5112;54.088;13.446;2023-11-19T16:41:12;10.30;99.90
10143;DHT22;5112;54.088;13.446;2023-11-19T16:51:14;10.30;99.90
10143;DHT22;5112;54.088;13.446;2023-11-19T17:01:17;10.30;99.90
10143;DHT22;5112;54.088;13.446;2023-11-19T17:11:19;10.20;99.90
10143;DHT22;5112;54.088;13.446;2023-11-19T17:21:22;10.40;99.90
10143;DHT22;5112;54.088;13.446;2023-11-19T17:31:24;10.40;99.90
10143;DHT22;5112;54.088;13.446;2023-11-19T17:41:27;10.40;99.90
10143;DHT22;5112;54.088;13.446;2023-11-19T17:51:29;10.50;99.90
10143;DHT22;5112;54.088;13.446;2023-11-19T18:01:32;10.50;99.90
10143;DHT22;5112;54.088;13.446;2023-11-19T18:11:36;10.50;99.90
10143;DHT22;5112;54.088;13.446;2023-11-19T18:21:39;10.30;99.90
10143;DHT22;5112;54.088;13.446;2023-11-19T18:31:41;10.20;99.90
10143;DHT22;5112;54.088;13.446;2023-11-19T18:41:43;10.20;99.90
10143;DHT22;5112;54.088;13.446;2023-11-19T18:51:45;10.20;99.90
10143;DHT22;5112;54.088;13.446;2023-11-19T19:01:48;10.30;99.90
10143;DHT22;5112;54.088;13.446;2023-11-19T19:11:50;10.40;99.90
10143;DHT22;5112;54.088;13.446;2023-11-19T19:21:54;10.30;99.90
10143;DHT22;5112;54.088;13.446;2023-11-19T19:31:55;10.20;99.90
10143;DHT22;5112;54.088;13.446;2023-11-19T19:42:00;10.20;99.90
10143;DHT22;5112;54.088;13.446;2023-11-19T19:52:04;10.10;99.90
10143;DHT22;5112;54.088;13.446;2023-11-19T20:02:08;10.20;99.90
10143;DHT22;5112;54.088;13.446;2023-11-19T20:12:10;10.20;99.90
10143;DHT22;5112;54.088;13.446;2023-11-19T20:22:13;10.30;99.90
10143;DHT22;5112;54.088;13.446;2023-11-19T20:32:15;10.30;99.90
10143;DHT22;5112;54.088;13.446;2023-11-19T20:42:18;10.30;99.90
10143;DHT22;5112;54.088;13.446;2023-11-19T20:52:19;10.30;99.90
10143;DHT22;5112;54.088;13.446;2023-11-19T21:02:23;10.30;99.90
10143;DHT22;5112;54.088;13.446;2023-11-19T21:12:25;10.20;99.90
10143;DHT22;5112;54.088;13.446;2023-11-19T21:22:28;10.20;99.90
10143;DHT22;5112;54.088;13.446;2023-11-19T21:32:29;10.20;99.90
10143;DHT22;5112;54.088;13.446;2023-11-19T21:42:34;10.10;99.90
10143;DHT22;5112;54.088;13.446;2023-11-19T21:52:35;10.20;99.90
10143;DHT22;5112;54.088;13.446;2023-11-19T22:02:38;10.10;99.90
10143;DHT22;5112;54.088;13.446;2023-11-19T22:12:40;10.20;99.90
10143;DHT22;5112;54.088;13.446;2023-11-19T22:22:43;10.10;99.90
10143;DHT22;5112;54.088;13.446;2023-11-19T22:32:46;10.00;99.90
10143;DHT22;5112;54.088;13.446;2023-11-19T22:42:48;10.00;99.90
10143;DHT22;5112;54.088;13.446;2023-11-19T22:52:50;10.00;99.90
10143;DHT22;5112;54.088;13.446;2023-11-19T23:02:53;9.90;99.90
10143;DHT22;5112;54.088;13.446;2023-11-19T23:12:56;9.90;99.90
10143;DHT22;5112;54.088;13.446;2023-11-19T23:22:59;9.90;99.90
10143;DHT22;5112;54.088;13.446;2023-11-19T23:33:01;9.90;99.90
10143;DHT22;5112;54.088;13.446;2023-11-19T23:43:04;9.90;99.90
10143;DHT22;5112;54.088;13.446;2023-11-19T23:53:05;9.90;99.90
